sensor_id;sensor_type;location;lat;lon;timestamp;pressure;altitude;pressure_sealevel;temperature;humidity
48624;BME280;34422;45.802;16.114;2023-10-31T00:01:01;65309.31;;;14.29;100.00
48624;BME280;34422;45.802;16.114;2023-10-31T00:03:31;65305.00;;;14.25;100.00
48624;BME280;34422;45.802;16.114;2023-10-31T00:06:03;65275.28;;;13.95;100.00
48624;BME280;34422;45.802;16.114;2023-10-31T00:08:33;65279.09;;;14.06;100.00
48624;BME280;34422;45.802;16.114;2023-10-31T00:11:00;65284.47;;;14.06;100.00
48624;BME280;34422;45.802;16.114;2023-10-31T00:13:27;65283.41;;;14.05;100.00
48624;BME280;34422;45.802;16.114;2023-10-31T00:15:55;65270.97;;;13.98;100.00
48624;BME280;34422;45.802;16.114;2023-10-31T00:18:22;65259.63;;;13.82;100.00
48624;BME280;34422;45.802;16.114;2023-10-31T00:20:53;65271.53;;;13.94;100.00
48624;BME280;34422;45.802;16.114;2023-10-31T00:23:22;65275.84;;;14.00;100.00
48624;BME280;34422;45.802;16.114;2023-10-31T00:25:49;65274.22;;;13.99;100.00
48624;BME280;34422;45.802;16.114;2023-10-31T00:28:16;65260.72;;;13.88;100.00
48624;BME280;34422;45.802;16.114;2023-10-31T00:30:43;65270.44;;;13.93;100.00
48624;BME280;34422;45.802;16.114;2023-10-31T00:33:13;65280.16;;;14.02;100.00
48624;BME280;34422;45.802;16.114;2023-10-31T00:35:51;65263.94;;;13.81;100.00
48624;BME280;34422;45.802;16.114;2023-10-31T00:38:20;65267.19;;;13.87;100.00
48624;BME280;34422;45.802;16.114;2023-10-31T00:40:47;65260.72;;;13.81;100.00
48624;BME280;34422;45.802;16.114;2023-10-31T00:43:16;65266.66;;;13.86;100.00
48624;BME280;34422;45.802;16.114;2023-10-31T00:45:43;65247.75;;;13.71;100.00
48624;BME280;34422;45.802;16.114;2023-10-31T00:48:13;65272.03;;;13.94;100.00
48624;BME280;34422;45.802;16.114;2023-10-31T00:50:42;65279.06;;;14.01;100.00
48624;BME280;34422;45.802;16.114;2023-10-31T00:53:09;65282.31;;;14.04;100.00
48624;BME280;34422;45.802;16.114;2023-10-31T00:55:36;65289.88;;;14.11;100.00
48624;BME280;34422;45.802;16.114;2023-10-31T00:58:04;65282.31;;;14.09;100.00
48624;BME280;34422;45.802;16.114;2023-10-31T01:00:31;65307.69;;;14.22;100.00
48624;BME280;34422;45.802;16.114;2023-10-31T01:02:59;65319.56;;;14.36;100.00
48624;BME280;34422;45.802;16.114;2023-10-31T01:05:26;65305.00;;;14.30;100.00
48624;BME280;34422;45.802;16.114;2023-10-31T01:07:55;65337.41;;;14.50;100.00
48624;BME280;34422;45.802;16.114;2023-10-31T01:10:22;65328.78;;;14.42;100.00
48624;BME280;34422;45.802;16.114;2023-10-31T01:12:49;65332.00;;;14.50;100.00
48624;BME280;34422;45.802;16.114;2023-10-31T01:15:16;65324.44;;;14.38;100.00
48624;BME280;34422;45.802;16.114;2023-10-31T01:17:43;65322.31;;;14.46;100.00
48624;BME280;34422;45.802;16.114;2023-10-31T01:20:11;65310.94;;;14.33;100.00
48624;BME280;34422;45.802;16.114;2023-10-31T01:22:47;65314.72;;;14.34;100.00
48624;BME280;34422;45.802;16.114;2023-10-31T01:25:34;65305.53;;;14.28;100.00
48624;BME280;34422;45.802;16.114;2023-10-31T01:28:01;65288.78;;;14.15;100.00
48624;BME280;34422;45.802;16.114;2023-10-31T01:30:45;65299.59;;;14.15;100.00
48624;BME280;34422;45.802;16.114;2023-10-31T01:33:14;65290.41;;;14.14;100.00
48624;BME280;34422;45.802;16.114;2023-10-31T01:35:53;65307.16;;;14.27;100.00
48624;BME280;34422;45.802;16.114;2023-10-31T01:38:23;65315.78;;;14.35;100.00
48624;BME280;34422;45.802;16.114;2023-10-31T01:41:24;65317.94;;;14.37;100.00
48624;BME280;34422;45.802;16.114;2023-10-31T01:44:13;65340.66;;;14.58;100.00
48624;BME280;34422;45.802;16.114;2023-10-31T01:47:06;65352.53;;;14.65;100.00
48624;BME280;34422;45.802;16.114;2023-10-31T01:49:36;65349.84;;;14.70;100.00
48624;BME280;34422;45.802;16.114;2023-10-31T01:52:06;65346.06;;;14.64;100.00
48624;BME280;34422;45.802;16.114;2023-10-31T01:54:40;65352.53;;;14.70;100.00
48624;BME280;34422;45.802;16.114;2023-10-31T01:57:07;65345.53;;;14.68;100.00
48624;BME280;34422;45.802;16.114;2023-10-31T01:59:47;65346.59;;;14.67;100.00
48624;BME280;34422;45.802;16.114;2023-10-31T02:02:14;65340.66;;;14.64;100.00
48624;BME280;34422;45.802;16.114;2023-10-31T02:04:45;65347.69;;;14.68;100.00
48624;BME280;34422;45.802;16.114;2023-10-31T02:07:15;65348.22;;;14.66;100.00
48624;BME280;34422;45.802;16.114;2023-10-31T02:09:45;65340.13;;;14.61;100.00
48624;BME280;34422;45.802;16.114;2023-10-31T02:12:31;65336.34;;;14.57;100.00
48624;BME280;34422;45.802;16.114;2023-10-31T02:15:01;65355.78;;;14.70;100.00
48624;BME280;34422;45.802;16.114;2023-10-31T02:17:31;65349.31;;;14.69;100.00
48624;BME280;34422;45.802;16.114;2023-10-31T02:19:59;65363.34;;;14.80;100.00
48624;BME280;34422;45.802;16.114;2023-10-31T02:22:26;65368.22;;;14.87;100.00
48624;BME280;34422;45.802;16.114;2023-10-31T02:24:54;65375.22;;;14.91;100.00
48624;BME280;34422;45.802;16.114;2023-10-31T02:27:21;65358.47;;;14.78;100.00
48624;BME280;34422;45.802;16.114;2023-10-31T02:29:51;65352.00;;;14.72;100.00
48624;BME280;34422;45.802;16.114;2023-10-31T02:32:18;65366.59;;;14.83;100.00
48624;BME280;34422;45.802;16.114;2023-10-31T02:34:46;65360.09;;;14.82;100.00
48624;BME280;34422;45.802;16.114;2023-10-31T02:37:13;65355.25;;;14.75;100.00
48624;BME280;34422;45.802;16.114;2023-10-31T02:39:41;65365.50;;;14.82;100.00
48624;BME280;34422;45.802;16.114;2023-10-31T02:42:08;65372.53;;;14.86;100.00
48624;BME280;34422;45.802;16.114;2023-10-31T02:44:35;65371.47;;;14.87;100.00
48624;BME280;34422;45.802;16.114;2023-10-31T02:47:02;65368.75;;;14.87;100.00
48624;BME280;34422;45.802;16.114;2023-10-31T02:49:32;65381.16;;;14.97;100.00
48624;BME280;34422;45.802;16.114;2023-10-31T02:51:59;65389.81;;;15.02;100.00
48624;BME280;34422;45.802;16.114;2023-10-31T02:54:26;65378.47;;;14.94;100.00
48624;BME280;34422;45.802;16.114;2023-10-31T02:56:53;65383.88;;;14.99;100.00
48624;BME280;34422;45.802;16.114;2023-10-31T02:59:49;65390.34;;;15.10;100.00
48624;BME280;34422;45.802;16.114;2023-10-31T03:02:54;65382.78;;;14.96;100.00
48624;BME280;34422;45.802;16.114;2023-10-31T03:05:48;65406.56;;;15.20;100.00
48624;BME280;34422;45.802;16.114;2023-10-31T03:08:38;65397.94;;;15.12;100.00
48624;BME280;34422;45.802;16.114;2023-10-31T03:11:27;65399.00;;;15.13;100.00
48624;BME280;34422;45.802;16.114;2023-10-31T03:14:04;65416.84;;;15.35;100.00
48624;BME280;34422;45.802;16.114;2023-10-31T03:16:46;65421.69;;;15.35;100.00
48624;BME280;34422;45.802;16.114;2023-10-31T03:19:13;65433.06;;;15.40;100.00
48624;BME280;34422;45.802;16.114;2023-10-31T03:21:40;65428.19;;;15.41;100.00
48624;BME280;34422;45.802;16.114;2023-10-31T03:24:07;65421.16;;;15.37;100.00
48624;BME280;34422;45.802;16.114;2023-10-31T03:26:34;65399.00;;;15.13;100.00
48624;BME280;34422;45.802;16.114;2023-10-31T03:29:07;65404.94;;;15.24;100.00
48624;BME280;34422;45.802;16.114;2023-10-31T03:31:48;65393.06;;;15.10;100.00
48624;BME280;34422;45.802;16.114;2023-10-31T03:34:21;65382.25;;;15.00;100.00
48624;BME280;34422;45.802;16.114;2023-10-31T03:36:50;65379.00;;;14.97;100.00
48624;BME280;34422;45.802;16.114;2023-10-31T03:39:22;65376.84;;;14.95;100.00
48624;BME280;34422;45.802;16.114;2023-10-31T03:41:54;65382.78;;;14.98;100.00
48624;BME280;34422;45.802;16.114;2023-10-31T03:44:21;65389.28;;;15.07;100.00
48624;BME280;34422;45.802;16.114;2023-10-31T03:46:52;65377.38;;;14.96;100.00
48624;BME280;34422;45.802;16.114;2023-10-31T03:49:21;65383.34;;;14.99;100.00
48624;BME280;34422;45.802;16.114;2023-10-31T03:52:13;65364.41;;;14.81;100.00
48624;BME280;34422;45.802;16.114;2023-10-31T03:54:49;65380.09;;;15.01;100.00
48624;BME280;34422;45.802;16.114;2023-10-31T03:57:25;65372.00;;;14.85;100.00
48624;BME280;34422;45.802;16.114;2023-10-31T03:59:56;65375.78;;;14.94;100.00
48624;BME280;34422;45.802;16.114;2023-10-31T04:02:47;65381.72;;;14.97;100.00
48624;BME280;34422;45.802;16.114;2023-10-31T04:05:25;65389.28;;;15.04;100.00
48624;BME280;34422;45.802;16.114;2023-10-31T04:08:09;65383.88;;;14.99;100.00
48624;BME280;34422;45.802;16.114;2023-10-31T04:10:45;65394.69;;;15.09;100.00
48624;BME280;34422;45.802;16.114;2023-10-31T04:13:29;65376.84;;;14.92;100.00
48624;BME280;34422;45.802;16.114;2023-10-31T04:19:53;65401.69;;;15.21;100.00
48624;BME280;34422;45.802;16.114;2023-10-31T04:22:39;65421.16;;;15.37;100.00
48624;BME280;34422;45.802;16.114;2023-10-31T04:25:17;65408.72;;;15.22;100.00
48624;BME280;34422;45.802;16.114;2023-10-31T04:28:04;65410.91;;;15.29;100.00
48624;BME280;34422;45.802;16.114;2023-10-31T04:30:50;65430.34;;;15.43;100.00
48624;BME280;34422;45.802;16.114;2023-10-31T04:33:29;65407.09;;;15.21;100.00
48624;BME280;34422;45.802;16.114;2023-10-31T04:36:02;65418.47;;;15.37;100.00
48624;BME280;34422;45.802;16.114;2023-10-31T04:38:30;65422.78;;;15.36;100.00
48624;BME280;34422;45.802;16.114;2023-10-31T04:40:57;65437.91;;;15.50;100.00
48624;BME280;34422;45.802;16.114;2023-10-31T04:43:24;65435.22;;;15.50;100.00
48624;BME280;34422;45.802;16.114;2023-10-31T04:45:51;65442.78;;;15.54;100.00
48624;BME280;34422;45.802;16.114;2023-10-31T04:48:18;65444.44;;;15.56;100.00
48624;BME280;34422;45.802;16.114;2023-10-31T04:50:45;65454.69;;;15.68;100.00
48624;BME280;34422;45.802;16.114;2023-10-31T04:53:12;65462.25;;;15.73;100.00
48624;BME280;34422;45.802;16.114;2023-10-31T04:55:39;65460.13;;;15.71;100.00
48624;BME280;34422;45.802;16.114;2023-10-31T04:58:06;65466.03;;;15.76;100.00
48624;BME280;34422;45.802;16.114;2023-10-31T05:00:33;65463.34;;;15.76;100.00
48624;BME280;34422;45.802;16.114;2023-10-31T05:03:00;65470.38;;;15.75;100.00
48624;BME280;34422;45.802;16.114;2023-10-31T05:05:28;65470.38;;;15.80;100.00
48624;BME280;34422;45.802;16.114;2023-10-31T05:07:55;65472.53;;;15.80;100.00
48624;BME280;34422;45.802;16.114;2023-10-31T05:10:25;65475.78;;;15.90;100.00
48624;BME280;34422;45.802;16.114;2023-10-31T05:12:54;65486.59;;;15.93;100.00
48624;BME280;34422;45.802;16.114;2023-10-31T05:15:38;65484.44;;;15.96;100.00
48624;BME280;34422;45.802;16.114;2023-10-31T05:18:13;65487.69;;;15.94;100.00
48624;BME280;34422;45.802;16.114;2023-10-31T05:20:47;65475.78;;;15.90;100.00
48624;BME280;34422;45.802;16.114;2023-10-31T05:23:23;65460.66;;;15.71;100.00
48624;BME280;34422;45.802;16.114;2023-10-31T05:26:05;65472.00;;;15.84;100.00
48624;BME280;34422;45.802;16.114;2023-10-31T05:28:35;65461.72;;;15.75;100.00
48624;BME280;34422;45.802;16.114;2023-10-31T05:31:04;65447.69;;;15.56;100.00
48624;BME280;34422;45.802;16.114;2023-10-31T05:33:31;65456.31;;;15.72;100.00
48624;BME280;34422;45.802;16.114;2023-10-31T05:36:17;65453.63;;;15.67;100.00
48624;BME280;34422;45.802;16.114;2023-10-31T05:38:58;65447.66;;;15.59;100.00
48624;BME280;34422;45.802;16.114;2023-10-31T05:41:25;65440.66;;;15.55;100.00
48624;BME280;34422;45.802;16.114;2023-10-31T05:43:52;65419.53;;;15.33;100.00
48624;BME280;34422;45.802;16.114;2023-10-31T05:46:19;65414.13;;;15.33;100.00
48624;BME280;34422;45.802;16.114;2023-10-31T05:48:46;65420.06;;;15.33;100.00
48624;BME280;34422;45.802;16.114;2023-10-31T05:51:18;65439.53;;;15.49;100.00
48624;BME280;34422;45.802;16.114;2023-10-31T05:53:46;65432.50;;;15.50;100.00
48624;BME280;34422;45.802;16.114;2023-10-31T05:56:15;65429.81;;;15.45;100.00
48624;BME280;34422;45.802;16.114;2023-10-31T05:58:42;65439.00;;;15.53;100.00
48624;BME280;34422;45.802;16.114;2023-10-31T06:01:09;65410.91;;;15.29;100.00
48624;BME280;34422;45.802;16.114;2023-10-31T06:03:36;65427.66;;;15.43;100.00
48624;BME280;34422;45.802;16.114;2023-10-31T06:06:04;65443.88;;;15.50;100.00
48624;BME280;34422;45.802;16.114;2023-10-31T06:08:31;65439.53;;;15.54;100.00
48624;BME280;34422;45.802;16.114;2023-10-31T06:10:58;65434.69;;;15.52;100.00
48624;BME280;34422;45.802;16.114;2023-10-31T06:13:25;65440.66;;;15.55;100.00
48624;BME280;34422;45.802;16.114;2023-10-31T06:15:56;65449.81;;;15.58;100.00
48624;BME280;34422;45.802;16.114;2023-10-31T06:18:24;65448.19;;;15.59;100.00
48624;BME280;34422;45.802;16.114;2023-10-31T06:20:51;65442.25;;;15.54;100.00
48624;BME280;34422;45.802;16.114;2023-10-31T06:23:18;65437.91;;;15.52;100.00
48624;BME280;34422;45.802;16.114;2023-10-31T06:25:45;65434.13;;;15.46;100.00
48624;BME280;34422;45.802;16.114;2023-10-31T06:28:13;65434.69;;;15.52;100.00
48624;BME280;34422;45.802;16.114;2023-10-31T06:30:40;65427.13;;;15.40;100.00
48624;BME280;34422;45.802;16.114;2023-10-31T06:33:07;65423.34;;;15.41;100.00
48624;BME280;34422;45.802;16.114;2023-10-31T06:35:35;65435.75;;;15.48;100.00
48624;BME280;34422;45.802;16.114;2023-10-31T06:38:02;65444.41;;;15.53;100.00
48624;BME280;34422;45.802;16.114;2023-10-31T06:40:29;65436.28;;;15.51;100.00
48624;BME280;34422;45.802;16.114;2023-10-31T06:42:56;65415.75;;;15.34;100.00
48624;BME280;34422;45.802;16.114;2023-10-31T06:45:23;65439.00;;;15.51;100.00
48624;BME280;34422;45.802;16.114;2023-10-31T06:47:50;65444.41;;;15.61;100.00
48624;BME280;34422;45.802;16.114;2023-10-31T06:50:17;65449.28;;;15.60;100.00
48624;BME280;34422;45.802;16.114;2023-10-31T06:52:43;65457.94;;;15.66;100.00
48624;BME280;34422;45.802;16.114;2023-10-31T06:55:10;65450.38;;;15.64;100.00
48624;BME280;34422;45.802;16.114;2023-10-31T06:57:39;65448.19;;;15.59;100.00
48624;BME280;34422;45.802;16.114;2023-10-31T07:00:07;65435.22;;;15.47;100.00
48624;BME280;34422;45.802;16.114;2023-10-31T07:02:35;65444.44;;;15.56;100.00
48624;BME280;34422;45.802;16.114;2023-10-31T07:05:02;65452.00;;;15.63;100.00
48624;BME280;34422;45.802;16.114;2023-10-31T07:07:32;65427.13;;;15.40;100.00
48624;BME280;34422;45.802;16.114;2023-10-31T07:10:02;65447.66;;;15.64;100.00
48624;BME280;34422;45.802;16.114;2023-10-31T07:12:34;65481.19;;;15.90;100.00
48624;BME280;34422;45.802;16.114;2023-10-31T07:18:17;65535.81;;;16.49;100.00
48624;BME280;34422;45.802;16.114;2023-10-31T07:20:55;65563.97;;;16.73;100.00
48624;BME280;34422;45.802;16.114;2023-10-31T07:23:31;65562.88;;;16.69;100.00
48624;BME280;34422;45.802;16.114;2023-10-31T07:26:01;65592.63;;;16.97;100.00
48624;BME280;34422;45.802;16.114;2023-10-31T07:28:31;65570.47;;;16.77;100.00
48624;BME280;34422;45.802;16.114;2023-10-31T07:30:58;65587.78;;;16.88;100.00
48624;BME280;34422;45.802;16.114;2023-10-31T07:33:26;65583.44;;;16.84;100.00
48624;BME280;34422;45.802;16.114;2023-10-31T07:35:56;65592.13;;;16.94;100.00
48624;BME280;34422;45.802;16.114;2023-10-31T07:38:27;65582.91;;;16.86;100.00
48624;BME280;34422;45.802;16.114;2023-10-31T07:40:59;65562.34;;;16.72;100.00
48624;BME280;34422;45.802;16.114;2023-10-31T07:43:28;65576.41;;;16.80;100.00
48624;BME280;34422;45.802;16.114;2023-10-31T07:45:57;65567.75;;;16.74;100.00
48624;BME280;34422;45.802;16.114;2023-10-31T07:48:24;65577.50;;;16.81;100.00
48624;BME280;34422;45.802;16.114;2023-10-31T07:50:51;65569.38;;;16.78;100.00
48624;BME280;34422;45.802;16.114;2023-10-31T07:53:19;65555.31;;;16.65;100.00
48624;BME280;34422;45.802;16.114;2023-10-31T07:55:45;65548.25;;;16.58;100.00
48624;BME280;34422;45.802;16.114;2023-10-31T07:58:12;65560.19;;;16.64;100.00
48624;BME280;34422;45.802;16.114;2023-10-31T08:00:40;65561.78;;;16.71;100.00
48624;BME280;34422;45.802;16.114;2023-10-31T08:03:07;65567.75;;;16.74;100.00
48624;BME280;34422;45.802;16.114;2023-10-31T08:05:36;65581.81;;;16.85;100.00
48624;BME280;34422;45.802;16.114;2023-10-31T08:08:06;65590.50;;;16.88;100.00
48624;BME280;34422;45.802;16.114;2023-10-31T08:10:38;65599.69;;;16.99;100.00
48624;BME280;34422;45.802;16.114;2023-10-31T08:13:05;65601.84;;;17.09;100.00
48624;BME280;34422;45.802;16.114;2023-10-31T08:15:33;65608.88;;;17.15;100.00
48624;BME280;34422;45.802;16.114;2023-10-31T08:18:00;65613.75;;;17.15;100.00
48624;BME280;34422;45.802;16.114;2023-10-31T08:20:27;65608.88;;;17.10;100.00
48624;BME280;34422;45.802;16.114;2023-10-31T08:22:59;65622.94;;;17.28;100.00
48624;BME280;34422;45.802;16.114;2023-10-31T08:25:26;65624.03;;;17.29;100.00
48624;BME280;34422;45.802;16.114;2023-10-31T08:27:53;65628.38;;;17.31;100.00
48624;BME280;34422;45.802;16.114;2023-10-31T08:30:22;65620.78;;;17.26;100.00
48624;BME280;34422;45.802;16.114;2023-10-31T08:32:49;65644.63;;;17.46;100.00
48624;BME280;34422;45.802;16.114;2023-10-31T08:35:19;65653.28;;;17.54;100.00
48624;BME280;34422;45.802;16.114;2023-10-31T08:37:46;65667.91;;;17.68;100.00
48624;BME280;34422;45.802;16.114;2023-10-31T08:40:15;65684.69;;;17.86;100.00
48624;BME280;34422;45.802;16.114;2023-10-31T08:42:43;65705.28;;;18.00;100.00
48624;BME280;34422;45.802;16.114;2023-10-31T08:45:09;65729.66;;;18.28;100.00
48624;BME280;34422;45.802;16.114;2023-10-31T08:47:36;65771.38;;;18.67;100.00
48624;BME280;34422;45.802;16.114;2023-10-31T08:50:04;65785.50;;;18.75;100.00
48624;BME280;34422;45.802;16.114;2023-10-31T08:52:31;65794.16;;;18.89;100.00
48624;BME280;34422;45.802;16.114;2023-10-31T08:54:58;65810.44;;;18.99;100.00
48624;BME280;34422;45.802;16.114;2023-10-31T08:57:25;65832.66;;;19.25;100.00
48624;BME280;34422;45.802;16.114;2023-10-31T08:59:52;65879.81;;;19.69;100.00
48624;BME280;34422;45.802;16.114;2023-10-31T09:02:19;65936.25;;;20.21;100.00
48624;BME280;34422;45.802;16.114;2023-10-31T09:04:46;65967.72;;;20.51;100.00
48624;BME280;34422;45.802;16.114;2023-10-31T09:07:14;65957.97;;;20.42;100.00
48624;BME280;34422;45.802;16.114;2023-10-31T09:09:41;65979.16;;;20.56;100.00
48624;BME280;34422;45.802;16.114;2023-10-31T09:12:08;66005.72;;;20.86;100.00
48624;BME280;34422;45.802;16.114;2023-10-31T09:14:36;65995.44;;;20.74;100.00
48624;BME280;34422;45.802;16.114;2023-10-31T09:17:05;66014.97;;;20.92;100.00
48624;BME280;34422;45.802;16.114;2023-10-31T09:19:35;66049.19;;;21.22;100.00
48624;BME280;34422;45.802;16.114;2023-10-31T09:22:03;66066.03;;;21.40;100.00
48624;BME280;34422;45.802;16.114;2023-10-31T09:24:29;66052.47;;;21.27;100.00
48624;BME280;34422;45.802;16.114;2023-10-31T09:26:56;65944.38;;;20.29;100.00
48624;BME280;34422;45.802;16.114;2023-10-31T09:29:32;65864.13;;;19.51;100.00
48624;BME280;34422;45.802;16.114;2023-10-31T09:32:03;65812.56;;;19.06;100.00
48624;BME280;34422;45.802;16.114;2023-10-31T09:34:33;65746.44;;;18.44;100.00
48624;BME280;34422;45.802;16.114;2023-10-31T09:37:00;65721.53;;;18.16;100.00
48624;BME280;34422;45.802;16.114;2023-10-31T09:39:30;65712.31;;;18.09;100.00
48624;BME280;34422;45.802;16.114;2023-10-31T09:41:57;65682.00;;;17.81;100.00
48624;BME280;34422;45.802;16.114;2023-10-31T09:44:24;65663.03;;;17.66;100.00
48624;BME280;34422;45.802;16.114;2023-10-31T09:46:52;65639.19;;;17.38;100.00
48624;BME280;34422;45.802;16.114;2023-10-31T09:49:19;65553.16;;;16.63;100.00
48624;BME280;34422;45.802;16.114;2023-10-31T09:51:47;65503.91;;;16.17;100.00
48624;BME280;34422;45.802;16.114;2023-10-31T09:54:16;65489.31;;;15.98;100.00
48624;BME280;34422;45.802;16.114;2023-10-31T09:56:43;65442.25;;;15.51;100.00
48624;BME280;34422;45.802;16.114;2023-10-31T09:59:16;65419.00;;;15.29;100.00
48624;BME280;34422;45.802;16.114;2023-10-31T10:04:53;65414.13;;;15.25;100.00
48624;BME280;34422;45.802;16.114;2023-10-31T10:07:24;65409.28;;;15.25;100.00
48624;BME280;34422;45.802;16.114;2023-10-31T10:09:58;65428.19;;;15.46;100.00
48624;BME280;34422;45.802;16.114;2023-10-31T10:16:28;65428.19;;;15.41;100.00
48624;BME280;34422;45.802;16.114;2023-10-31T10:18:55;65424.94;;;15.38;100.00
48624;BME280;34422;45.802;16.114;2023-10-31T10:21:22;65424.41;;;15.40;100.00
48624;BME280;34422;45.802;16.114;2023-10-31T10:23:51;65415.22;;;15.28;100.00
48624;BME280;34422;45.802;16.114;2023-10-31T10:26:18;65407.66;;;15.21;100.00
48624;BME280;34422;45.802;16.114;2023-10-31T10:28:48;65398.47;;;15.15;100.00
48624;BME280;34422;45.802;16.114;2023-10-31T10:31:15;65401.19;;;15.15;100.00
48624;BME280;34422;45.802;16.114;2023-10-31T10:33:42;65404.94;;;15.24;100.00
48624;BME280;34422;45.802;16.114;2023-10-31T10:36:10;65411.97;;;15.28;100.00
48624;BME280;34422;45.802;16.114;2023-10-31T10:38:37;65406.56;;;15.20;100.00
48624;BME280;34422;45.802;16.114;2023-10-31T10:41:06;65402.25;;;15.21;100.00
48624;BME280;34422;45.802;16.114;2023-10-31T10:43:37;65411.97;;;15.31;100.00
48624;BME280;34422;45.802;16.114;2023-10-31T10:46:05;65444.41;;;15.53;100.00
48624;BME280;34422;45.802;16.114;2023-10-31T10:48:35;65446.59;;;15.58;100.00
48624;BME280;34422;45.802;16.114;2023-10-31T10:51:08;65455.25;;;15.71;100.00
48624;BME280;34422;45.802;16.114;2023-10-31T10:53:53;65449.84;;;15.56;100.00
48624;BME280;34422;45.802;16.114;2023-10-31T10:56:38;65432.50;;;15.50;100.00
48624;BME280;34422;45.802;16.114;2023-10-31T10:59:41;65447.66;;;15.59;100.00
48624;BME280;34422;45.802;16.114;2023-10-31T11:02:09;65444.94;;;15.54;100.00
48624;BME280;34422;45.802;16.114;2023-10-31T11:04:38;65452.00;;;15.58;100.00
48624;BME280;34422;45.802;16.114;2023-10-31T11:07:08;65447.13;;;15.61;100.00
48624;BME280;34422;45.802;16.114;2023-10-31T11:09:39;65476.34;;;15.83;100.00
48624;BME280;34422;45.802;16.114;2023-10-31T11:12:13;65508.22;;;16.16;100.00
48624;BME280;34422;45.802;16.114;2023-10-31T11:14:42;65573.72;;;16.77;100.00
48624;BME280;34422;45.802;16.114;2023-10-31T11:17:18;65649.47;;;17.51;100.00
48624;BME280;34422;45.802;16.114;2023-10-31T11:19:51;65670.06;;;17.70;100.00
48624;BME280;34422;45.802;16.114;2023-10-31T11:22:18;65647.31;;;17.51;100.00
48624;BME280;34422;45.802;16.114;2023-10-31T11:24:45;65670.63;;;17.68;100.00
48624;BME280;34422;45.802;16.114;2023-10-31T11:27:12;65711.78;;;18.09;100.00
48624;BME280;34422;45.802;16.114;2023-10-31T11:29:39;65725.88;;;18.20;100.00
48624;BME280;34422;45.802;16.114;2023-10-31T11:32:10;65704.75;;;18.00;100.00
48624;BME280;34422;45.802;16.114;2023-10-31T11:34:38;65736.16;;;18.29;100.00
48624;BME280;34422;45.802;16.114;2023-10-31T11:42:48;65709.09;;;18.04;100.00
48624;BME280;34422;45.802;16.114;2023-10-31T11:45:36;65713.94;;;18.14;100.00
48624;BME280;34422;45.802;16.114;2023-10-31T11:48:08;65713.94;;;18.14;100.00
48624;BME280;34422;45.802;16.114;2023-10-31T11:50:37;65694.97;;;17.96;100.00
48624;BME280;34422;45.802;16.114;2023-10-31T11:53:06;65740.50;;;18.36;100.00
48624;BME280;34422;45.802;16.114;2023-10-31T11:58:19;65739.41;;;18.40;100.00
48624;BME280;34422;45.802;16.114;2023-10-31T12:00:48;65758.38;;;18.50;100.00
48624;BME280;34422;45.802;16.114;2023-10-31T12:03:17;65738.31;;;18.34;100.00
48624;BME280;34422;45.802;16.114;2023-10-31T12:05:58;65709.59;;;18.07;100.00
48624;BME280;34422;45.802;16.114;2023-10-31T12:08:30;65713.94;;;18.14;100.00
48624;BME280;34422;45.802;16.114;2023-10-31T12:11:11;65737.22;;;18.33;100.00
48624;BME280;34422;45.802;16.114;2023-10-31T12:13:40;65698.22;;;17.99;100.00
48624;BME280;34422;45.802;16.114;2023-10-31T12:16:15;65730.19;;;18.29;100.00
48624;BME280;34422;45.802;16.114;2023-10-31T12:18:42;65728.03;;;18.24;100.00
48624;BME280;34422;45.802;16.114;2023-10-31T12:21:10;65744.28;;;18.42;100.00
48624;BME280;34422;45.802;16.114;2023-10-31T12:23:43;65724.78;;;18.24;100.00
48624;BME280;34422;45.802;16.114;2023-10-31T12:26:10;65728.03;;;18.27;100.00
48624;BME280;34422;45.802;16.114;2023-10-31T12:28:37;65764.38;;;18.58;100.00
48624;BME280;34422;45.802;16.114;2023-10-31T12:31:05;65770.31;;;18.61;100.00
48624;BME280;34422;45.802;16.114;2023-10-31T12:33:32;65763.25;;;18.60;100.00
48624;BME280;34422;45.802;16.114;2023-10-31T12:36:00;65773.03;;;18.69;100.00
48624;BME280;34422;45.802;16.114;2023-10-31T12:38:28;65786.03;;;18.78;100.00
48624;BME280;34422;45.802;16.114;2023-10-31T12:40:55;65782.22;;;18.77;100.00
48624;BME280;34422;45.802;16.114;2023-10-31T12:43:23;65765.97;;;18.57;100.00
48624;BME280;34422;45.802;16.114;2023-10-31T12:45:52;65748.63;;;18.41;100.00
48624;BME280;34422;45.802;16.114;2023-10-31T12:48:23;65769.78;;;18.61;100.00
48624;BME280;34422;45.802;16.114;2023-10-31T12:51:06;65767.06;;;18.58;100.00
48624;BME280;34422;45.802;16.114;2023-10-31T12:53:35;65754.56;;;18.46;100.00
48624;BME280;34422;45.802;16.114;2023-10-31T12:56:02;65771.41;;;18.65;100.00
48624;BME280;34422;45.802;16.114;2023-10-31T12:58:29;65778.97;;;18.74;100.00
48624;BME280;34422;45.802;16.114;2023-10-31T13:00:56;65779.50;;;18.77;100.00
48624;BME280;34422;45.802;16.114;2023-10-31T13:03:29;65795.78;;;18.88;100.00
48624;BME280;34422;45.802;16.114;2023-10-31T13:05:58;65805.53;;;18.97;100.00
48624;BME280;34422;45.802;16.114;2023-10-31T13:08:25;65807.69;;;19.01;100.00
48624;BME280;34422;45.802;16.114;2023-10-31T13:10:52;65809.31;;;19.03;100.00
48624;BME280;34422;45.802;16.114;2023-10-31T13:13:19;65822.34;;;19.10;100.00
48624;BME280;34422;45.802;16.114;2023-10-31T13:15:46;65801.75;;;18.96;100.00
48624;BME280;34422;45.802;16.114;2023-10-31T13:18:13;65800.13;;;18.87;100.00
48624;BME280;34422;45.802;16.114;2023-10-31T13:20:41;65775.72;;;18.71;100.00